Flight Track Log - Related Links

Times and Time Zones

All times are in EDT time to prevent confusion due to time zone crossing. See the THY446 flight status page for this flight to view local times or setup timezone preferences in your user account.

Time Position Orientation Groundspeed Altitude Reporting Facility
EDT Latitude Longitude Course Direction KTS MPH feet Rate Location/Type
Fri 05:36:39 PM 40.9740 28.8120 208° Southwest 11 13  Level FlightAware ADS-B
Fri 05:37:05 PM 40.9730 28.8120 180° South 12 14 471 Level FlightAware ADS-B
Fri 05:39:00 PM 41.1248 29.0045 44° Northeast  Level Estimated
Fri 05:40:00 PM 41.2039 29.1053 44° Northeast  Level Estimated
Fri 05:41:00 PM 41.2829 29.2063 44° Northeast  Level Estimated
Fri 05:41:20 PM 41.0020 28.8060 44° Northeast 1,100  Level FlightAware ADS-B
Fri 05:42:10 PM 41.0430 28.8060 360° North 198 228 2,600 2,424 Climbing FlightAware ADS-B
Fri 05:42:59 PM 41.0950 28.8180 10° North 220 253 5,100 2,720 Climbing FlightAware ADS-B
Fri 05:43:25 PM 41.1220 28.8350 25° Northeast 247 284 6,000 2,618 Climbing FlightAware ADS-B
Fri 05:43:54 PM 41.1530 28.8440 12° North 251 289 7,500 3,164 Climbing FlightAware ADS-B
Fri 05:44:20 PM 41.1870 28.8540 12° North 266 306 8,900 3,100 Climbing FlightAware ADS-B
Fri 05:44:54 PM 41.2290 28.8650 11° North 265 305 10,600 2,080 Climbing FlightAware ADS-B
Fri 05:45:35 PM 41.2790 28.8800 13° North 314 361 11,500 1,814 Climbing FlightAware ADS-B
Fri 05:46:20 PM 41.3500 28.9010 13° North 330 380 13,200 2,533 Climbing FlightAware ADS-B
Fri 05:47:05 PM 41.4180 28.9200 12° North 331 381 15,300 2,430 Climbing FlightAware ADS-B
Fri 05:47:39 PM 41.4690 28.9350 12° North 348 400 16,400 2,143 Climbing FlightAware ADS-B
Fri 05:48:29 PM 41.5510 28.9590 12° North 349 402 18,300 2,233 Climbing FlightAware ADS-B
Fri 05:49:05 PM 41.6100 28.9760 12° North 363 418 19,600 1,886 Climbing FlightAware ADS-B
Fri 05:49:39 PM 41.6620 28.9920 13° North 361 415 20,500 1,875 Climbing FlightAware ADS-B
Fri 05:50:25 PM 41.7430 29.0160 12° North 365 420 22,100 2,067 Climbing FlightAware ADS-B
Fri 05:51:09 PM 41.8220 29.0390 12° North 375 432 23,600 2,240 Climbing FlightAware ADS-B
Fri 05:51:40 PM 41.8710 29.0530 12° North 363 418 24,900 1,714 Climbing FlightAware ADS-B
Fri 05:52:40 PM 41.9590 29.1150 28° Northeast 394 453 26,200 1,200 Climbing FlightAware ADS-B
Fri 05:53:15 PM 42.0080 29.1720 41° Northeast 401 461 26,800 1,137 Climbing FlightAware ADS-B
Fri 05:54:15 PM 42.0980 29.2750 40° Northeast 410 472 28,000 1,152 Climbing FlightAware ADS-B
Fri 05:54:54 PM 42.1560 29.3420 41° Northeast 420 483 28,700 1,071 Climbing FlightAware ADS-B
Fri 05:55:39 PM 42.2230 29.4200 41° Northeast 424 488 29,500 989 Climbing FlightAware ADS-B
Fri 05:56:25 PM 42.2910 29.4990 41° Northeast 429 494 30,200 918 Climbing FlightAware ADS-B
Fri 05:57:04 PM 42.3480 29.5650 41° Northeast 430 495 30,800 918 Climbing FlightAware ADS-B
Fri 05:57:50 PM 42.4130 29.6410 41° Northeast 432 497 31,500 918 Climbing FlightAware ADS-B
Fri 05:58:29 PM 42.4790 29.7180 41° Northeast 444 511 32,100 880 Climbing FlightAware ADS-B
Fri 05:59:05 PM 42.5330 29.7800 40° Northeast 446 513 32,600 667 Climbing FlightAware ADS-B
Fri 05:59:50 PM 42.6000 29.8600 41° Northeast 449 517 33,000 643 Climbing FlightAware ADS-B
Fri 06:00:29 PM 42.6680 29.9400 41° Northeast 454 522 33,500 635 Climbing FlightAware ADS-B
Fri 06:01:15 PM 42.7400 30.0240 41° Northeast 472 543 33,900 733 Climbing FlightAware ADS-B
Fri 06:01:59 PM 42.8120 30.1110 42° Northeast 456 525 34,600 1,050 Climbing FlightAware ADS-B
Fri 06:02:35 PM 42.8710 30.1810 41° Northeast 450 518 35,300 832 Climbing FlightAware ADS-B
Fri 06:03:40 PM 42.9750 30.3050 41° Northeast 455 524 36,000 339 Climbing FlightAware ADS-B
Fri 06:04:39 PM 43.0700 30.4190 41° Northeast 460 529 36,000  Level FlightAware ADS-B
Fri 06:05:20 PM 43.1250 30.4870 42° Northeast 460 529 36,000  Level FlightAware ADS-B
Fri 06:05:56 PM 43.1740 30.5470 42° Northeast 460 529 36,000  Level FlightAware ADS-B
Fri 06:06:53 PM 43.2890 30.6660 37° Northeast 458 527 36,000 -59 Level FlightAware ADS-B
Fri 06:07:38 PM 43.3730 30.7300 29° Northeast 456 525 35,900 -73 Descending FlightAware ADS-B
Fri 06:08:15 PM 43.4320 30.7730 28° Northeast 456 525 35,900 72 Level FlightAware ADS-B
Fri 06:09:01 PM 43.4340 30.7760 47° Northeast 461 531 36,000 136 Climbing FlightAware ADS-B
Fri 06:09:43 PM 43.6060 30.9070 29° Northeast 464 534 36,100  Climbing FlightAware ADS-B
Fri 06:10:23 PM 43.6840 30.9660 29° Northeast 465 535 36,000 -63 Descending FlightAware ADS-B
Fri 06:11:18 PM 43.7840 31.0420 29° Northeast 467 537 36,000  Level FlightAware ADS-B
Fri 06:12:13 PM 43.8940 31.1250 29° Northeast 466 536 36,000 316 Level FlightAware ADS-B
Fri 06:12:53 PM 43.9700 31.1830 29° Northeast 463 533 36,500 706 Climbing FlightAware ADS-B
Fri 06:13:38 PM 44.0570 31.2490 29° Northeast 463 533 37,000 353 Climbing FlightAware ADS-B
Fri 06:14:18 PM 44.1310 31.3060 29° Northeast 466 536 37,000  Level FlightAware ADS-B
Fri 06:15:03 PM 44.2160 31.3710 29° Northeast 462 532 37,000  Level FlightAware ADS-B
Fri 06:15:48 PM 44.3000 31.4350 29° Northeast 459 528 37,000  Level FlightAware ADS-B
Fri 06:16:20 PM 44.3460 31.4710 29° Northeast 458 527 37,000  Level FlightAware ADS-B
Fri 06:17:08 PM 44.4490 31.5510 29° Northeast 457 526 37,000 -67 Level FlightAware ADS-B
Fri 06:17:50 PM 44.5210 31.6080 29° Northeast 458 527 36,900  Descending FlightAware ADS-B
Fri 06:18:33 PM 44.6050 31.6730 29° Northeast 461 531 37,000 72 Climbing FlightAware ADS-B
Fri 06:19:13 PM 44.6810 31.7320 29° Northeast 465 535 37,000  Level FlightAware ADS-B
Fri 06:19:53 PM 44.7560 31.7910 29° Northeast 467 537 37,000 74 Level FlightAware ADS-B
Fri 06:20:34 PM 44.8290 31.8490 29° Northeast 469 540 37,100 74 Climbing FlightAware ADS-B
Fri 06:21:14 PM 44.9090 31.9130 30° Northeast 469 540 37,100 -71 Level FlightAware ADS-B
Fri 06:21:59 PM 44.9940 31.9810 29° Northeast 470 541 37,000 -67 Descending FlightAware ADS-B
Fri 06:22:44 PM 45.0790 32.0480 29° Northeast 470 541 37,000  Level FlightAware ADS-B
Fri 06:23:24 PM 45.1530 32.1080 30° Northeast 469 540 37,000  Level FlightAware ADS-B
Fri 06:24:09 PM 45.2380 32.1770 30° Northeast 468 539 37,000  Level FlightAware ADS-B
Fri 06:24:49 PM 45.3140 32.2380 29° Northeast 466 536 37,000  Level FlightAware ADS-B
Fri 06:25:34 PM 45.3980 32.3060 30° Northeast 466 536 37,000  Level FlightAware ADS-B
Fri 06:26:15 PM 45.4710 32.3700 32° Northeast 468 539 37,000  Level FlightAware ADS-B
Fri 06:26:54 PM 45.5410 32.4400 35° Northeast 467 537 37,000  Level FlightAware ADS-B
Fri 06:27:39 PM 45.6230 32.5210 35° Northeast 467 537 37,000  Level FlightAware ADS-B
Fri 06:28:19 PM 45.6920 32.5900 35° Northeast 467 537 37,000  Level FlightAware ADS-B
Fri 06:28:59 PM 45.7630 32.6590 34° Northeast 467 537 37,000  Level FlightAware ADS-B
Fri 06:29:44 PM 45.8430 32.7380 35° Northeast 466 536 37,000  Level FlightAware ADS-B
Fri 06:30:29 PM 45.9220 32.8160 34° Northeast 464 534 37,000  Level FlightAware ADS-B
Fri 06:31:09 PM 45.9940 32.8870 34° Northeast 463 533 37,000  Level FlightAware ADS-B
Fri 06:31:49 PM 46.0640 32.9570 35° Northeast 462 532 37,000  Level FlightAware ADS-B
Fri 06:32:34 PM 46.1420 33.0350 35° Northeast 461 531 37,000  Level FlightAware ADS-B
Fri 06:33:15 PM 46.2130 33.1060 35° Northeast 461 531 37,000  Level FlightAware ADS-B
Fri 06:33:59 PM 46.2930 33.1850 34° Northeast 461 531 37,000  Level FlightAware ADS-B
Fri 06:34:39 PM 46.3620 33.2550 35° Northeast 463 533 37,000  Level FlightAware ADS-B
Fri 06:35:19 PM 46.4320 33.3260 35° Northeast 463 533 37,000  Level FlightAware ADS-B
Fri 06:35:59 PM 46.5030 33.3980 35° Northeast 464 534 37,000  Level FlightAware ADS-B
Fri 06:36:44 PM 46.5820 33.4780 35° Northeast 464 534 37,000  Level FlightAware ADS-B
Fri 06:37:29 PM 46.6600 33.5580 35° Northeast 462 532 37,000  Level FlightAware ADS-B
Fri 06:38:04 PM 46.7200 33.6200 35° Northeast 460 529 37,000  Level FlightAware ADS-B
Fri 06:38:49 PM 46.8000 33.7020 35° Northeast 458 527 37,000  Level FlightAware ADS-B
Fri 06:39:34 PM 46.8770 33.7820 35° Northeast 459 528 37,000  Level FlightAware ADS-B
Fri 06:40:14 PM 46.9460 33.8540 35° Northeast 459 528 37,000  Level FlightAware ADS-B
Fri 06:40:54 PM 47.0130 33.9230 35° Northeast 460 529 37,000  Level FlightAware ADS-B
Fri 06:41:34 PM 47.0850 33.9980 35° Northeast 460 529 37,000  Level FlightAware ADS-B
Fri 06:42:19 PM 47.1630 34.0790 35° Northeast 460 529 37,000  Level FlightAware ADS-B
Fri 06:42:54 PM 47.2220 34.1410 36° Northeast 459 528 37,000  Level FlightAware ADS-B
Fri 06:43:39 PM 47.3010 34.2250 36° Northeast 459 528 37,000  Level FlightAware ADS-B
Fri 06:44:14 PM 47.3610 34.2870 35° Northeast 460 529 37,000  Level FlightAware ADS-B
Fri 06:45:12 PM 47.4580 34.3910 36° Northeast 460 529 37,000  Level FlightAware ADS-B
Fri 06:46:02 PM 47.5410 34.4800 36° Northeast 457 526 37,000  Level FlightAware ADS-B
Fri 06:46:42 PM 47.6130 34.5570 36° Northeast 455 524 37,000  Level FlightAware ADS-B
Fri 06:47:17 PM 47.6740 34.6210 35° Northeast 455 524 37,000  Level FlightAware ADS-B
Fri 06:47:57 PM 47.7390 34.6920 36° Northeast 454 522 37,000  Level FlightAware ADS-B
Fri 06:48:38 PM 47.8000 34.7580 36° Northeast 453 521 37,000  Level FlightAware ADS-B
Fri 06:49:40 PM 47.9070 34.8730 36° Northeast 452 520 37,000  Level FlightAware ADS-B
Fri 06:50:25 PM 47.9900 34.9630 36° Northeast 452 520 37,000  Level FlightAware ADS-B
Fri 06:51:02 PM 48.0450 35.0240 37° Northeast 453 521 37,000  Level FlightAware ADS-B
Fri 06:52:01 PM 48.1430 35.1310 36° Northeast 455 524 37,000  Level FlightAware ADS-B
Fri 06:52:41 PM 48.2130 35.2080 36° Northeast 457 526 37,000  Level FlightAware ADS-B
Fri 06:53:27 PM 48.2900 35.2920 36° Northeast 460 529 37,000  Level FlightAware ADS-B
Fri 06:54:08 PM 48.3580 35.3690 37° Northeast 461 531 37,000 71 Level FlightAware ADS-B
Fri 06:54:52 PM 48.4470 35.4680 36° Northeast 460 529 37,100  Climbing FlightAware ADS-B
Fri 06:55:32 PM 48.5120 35.5400 36° Northeast 460 529 37,000 -71 Descending FlightAware ADS-B
Fri 06:56:17 PM 48.5880 35.6250 36° Northeast 459 528 37,000  Level FlightAware ADS-B
Fri 06:56:57 PM 48.6580 35.7050 37° Northeast 457 526 37,000  Level FlightAware ADS-B
Fri 06:57:37 PM 48.7230 35.7780 37° Northeast 457 526 37,000  Level FlightAware ADS-B
Fri 06:58:18 PM 48.7920 35.8570 37° Northeast 457 526 37,000  Level FlightAware ADS-B
Fri 06:58:54 PM 48.8520 35.9240 36° Northeast 456 525 37,000  Level FlightAware ADS-B
Fri 06:59:40 PM 48.9310 36.0140 37° Northeast 458 527 37,000  Level FlightAware ADS-B
Fri 07:00:19 PM 49.0000 36.0930 37° Northeast 457 526 37,000  Level FlightAware ADS-B
Fri 07:01:04 PM 49.0700 36.1740 37° Northeast 456 525 37,000  Level FlightAware ADS-B
Fri 07:01:44 PM 49.1400 36.2540 37° Northeast 455 524 37,000  Level FlightAware ADS-B
Fri 07:02:29 PM 49.2170 36.3440 37° Northeast 455 524 37,000  Level FlightAware ADS-B
Fri 07:03:04 PM 49.2740 36.4110 37° Northeast 454 522 37,000  Level FlightAware ADS-B
Fri 07:04:05 PM 49.3750 36.5280 37° Northeast 452 520 37,000  Level FlightAware ADS-B
Fri 07:04:49 PM 49.4470 36.6120 37° Northeast 451 519 37,000  Level FlightAware ADS-B
Fri 07:05:29 PM 49.5110 36.6870 37° Northeast 453 521 37,000  Level FlightAware ADS-B
Fri 07:06:24 PM 49.6100 36.8050 38° Northeast 456 525 37,000  Level FlightAware ADS-B
Fri 07:07:05 PM 49.6710 36.8770 37° Northeast 456 525 37,000  Level FlightAware ADS-B
Fri 07:08:00 PM 49.7610 36.9840 38° Northeast 458 527 37,000  Level FlightAware ADS-B
Fri 07:08:45 PM 49.8450 37.0850 38° Northeast 459 528 37,000  Level FlightAware ADS-B
Fri 07:09:26 PM 49.9110 37.1650 38° Northeast 461 531 37,000  Level FlightAware ADS-B
Fri 07:10:05 PM 49.9740 37.2410 38° Northeast 463 533 37,000  Level FlightAware ADS-B
Fri 07:11:00 PM 50.0700 37.3560 38° Northeast 465 535 37,000 58 Level FlightAware ADS-B
Fri 07:11:48 PM 50.1450 37.4480 38° Northeast 464 534 37,100  Climbing FlightAware ADS-B
Fri 07:12:26 PM 50.2140 37.5320 38° Northeast 463 533 37,000 -73 Descending FlightAware ADS-B
Fri 07:13:10 PM 50.2890 37.6250 38° Northeast 462 532 37,000  Level FlightAware ADS-B
Fri 07:13:55 PM 50.3570 37.7200 42° Northeast 462 532 37,000  Level FlightAware ADS-B
Fri 07:14:40 PM 50.4290 37.8230 42° Northeast 462 532 37,000  Level FlightAware ADS-B
Fri 07:15:36 PM 50.5190 37.9520 42° Northeast 462 532 37,000  Level FlightAware ADS-B
Fri 07:16:20 PM 50.5910 38.0560 43° Northeast 462 532 37,000  Level FlightAware ADS-B
Fri 07:16:55 PM 50.6450 38.1330 42° Northeast 462 532 37,000  Level FlightAware ADS-B
Fri 07:17:41 PM 50.7170 38.2370 42° Northeast 462 532 37,000  Level FlightAware ADS-B
Fri 07:18:40 PM 50.8070 38.3670 42° Northeast 462 532 37,000  Level FlightAware ADS-B
Fri 07:19:37 PM 50.8930 38.4900 42° Northeast 462 532 37,000  Level FlightAware ADS-B
Fri 07:20:15 PM 50.9170 38.6310 75° East 451 519 37,000  Level FlightAware ADS-B
Fri 07:21:12 PM 50.9910 38.7520 46° Northeast 453 521 37,000  Level FlightAware ADS-B
Fri 07:22:03 PM 51.0600 38.8650 46° Northeast 454 522 37,000  Level FlightAware ADS-B
Fri 07:22:54 PM 51.1230 38.9700 46° Northeast 454 522 37,000  Level FlightAware ADS-B
Fri 07:23:30 PM 51.1670 39.0430 46° Northeast 454 522 37,000  Level FlightAware ADS-B
Fri 07:24:18 PM 51.2270 39.1420 46° Northeast 454 522 37,000  Level FlightAware ADS-B
Fri 07:24:54 PM 51.2720 39.2160 46° Northeast 454 522 37,000  Level FlightAware ADS-B
Fri 07:25:42 PM 51.3310 39.3140 46° Northeast 454 522 37,000  Level FlightAware ADS-B
Fri 07:26:18 PM 51.3760 39.3880 46° Northeast 454 522 37,000  Level FlightAware ADS-B
Fri 07:26:54 PM 51.4200 39.4620 46° Northeast 454 522 37,000  Level FlightAware ADS-B
Fri 07:27:54 PM 51.4950 39.5860 46° Northeast 454 522 37,000  Level FlightAware ADS-B
Fri 07:28:30 PM 51.5390 39.6600 46° Northeast 454 522 37,000  Level FlightAware ADS-B
Fri 07:29:07 PM 51.5850 39.7370 46° Northeast 454 522 37,000  Level FlightAware ADS-B
Fri 07:29:55 PM 51.6450 39.8360 46° Northeast 454 522 37,000  Level FlightAware ADS-B
Fri 07:30:31 PM 51.6890 39.9110 47° Northeast 454 522 37,000  Level FlightAware ADS-B
Fri 07:31:20 PM 51.7500 40.0120 46° Northeast 454 522 37,000  Level FlightAware ADS-B
Fri 07:33:00 PM 51.8249 40.3031 67° East  Level Estimated
Fri 07:34:00 PM 51.8695 40.4782 68° East  Level Estimated
Fri 07:35:00 PM 51.9139 40.6537 68° East  Level Estimated
Fri 07:36:00 PM 51.9580 40.8295 68° East  Level Estimated
Fri 07:37:00 PM 52.0018 41.0056 68° East  Level Estimated
Fri 07:38:00 PM 52.0453 41.1821 68° East  Level Estimated
Fri 07:39:00 PM 52.0886 41.3590 68° East  Level Estimated
Fri 07:40:00 PM 52.1317 41.5362 68° East  Level Estimated
Fri 07:41:00 PM 52.1744 41.7137 68° East  Level Estimated
Fri 07:42:00 PM 52.2169 41.8916 69° East  Level Estimated
Fri 07:43:00 PM 52.2592 42.0698 69° East  Level Estimated
Fri 07:44:00 PM 52.3011 42.2483 69° East  Level Estimated
Fri 07:45:00 PM 52.3428 42.4272 69° East  Level Estimated
Fri 07:46:00 PM 52.3843 42.6064 69° East  Level Estimated
Fri 07:47:00 PM 52.4254 42.7860 69° East  Level Estimated
Fri 07:47:43 PM 52.7080 43.4830 69° East 467 537 37,000  Level FlightAware ADS-B
Fri 07:48:27 PM 52.7690 43.6140 52° Northeast 463 533 37,000  Level FlightAware ADS-B
Fri 07:49:18 PM 52.8350 43.7410 49° Northeast 463 533 37,000  Level FlightAware ADS-B
Fri 07:50:02 PM 52.8980 43.8640 50° Northeast 464 534 37,000  Level FlightAware ADS-B
Fri 07:50:42 PM 52.9530 43.9730 50° Northeast 463 533 37,000  Level FlightAware ADS-B
Fri 07:51:27 PM 53.0170 44.0950 49° Northeast 462 532 37,000  Level FlightAware ADS-B
Fri 07:52:07 PM 53.0700 44.2000 50° Northeast 461 531 37,000  Level FlightAware ADS-B
Fri 07:52:52 PM 53.1310 44.3210 50° Northeast 461 531 37,000  Level FlightAware ADS-B
Fri 07:53:32 PM 53.1840 44.4260 50° Northeast 462 532 37,000  Level FlightAware ADS-B
Fri 07:54:12 PM 53.2410 44.5380 50° Northeast 462 532 37,000  Level FlightAware ADS-B
Fri 07:54:56 PM 53.3020 44.6600 50° Northeast 463 533 37,000  Level FlightAware ADS-B
Fri 07:55:36 PM 53.3550 44.7670 50° Northeast 465 535 37,000  Level FlightAware ADS-B
Fri 07:56:21 PM 53.4180 44.8950 50° Northeast 465 535 37,000  Level FlightAware ADS-B
Fri 07:57:01 PM 53.4720 45.0050 50° Northeast 466 536 37,000  Level FlightAware ADS-B
Fri 07:57:41 PM 53.5280 45.1190 50° Northeast 465 535 37,000  Level FlightAware ADS-B
Fri 07:58:26 PM 53.5860 45.2460 52° Northeast 467 537 37,000  Level FlightAware ADS-B
Fri 07:59:06 PM 53.6340 45.3670 56° Northeast 466 536 37,000  Level FlightAware ADS-B
Fri 07:59:46 PM 53.6830 45.4880 56° Northeast 466 536 37,000  Level FlightAware ADS-B
Fri 08:00:26 PM 53.7310 45.6090 56° Northeast 465 535 37,000  Level FlightAware ADS-B
Fri 08:01:06 PM 53.7790 45.7310 56° Northeast 464 534 37,000  Level FlightAware ADS-B
Fri 08:01:36 PM 53.8130 45.8170 56° Northeast 464 534 37,000  Level FlightAware ADS-B
Fri 08:02:21 PM 53.8670 45.9550 56° Northeast 464 534 37,000  Level FlightAware ADS-B
Fri 08:03:06 PM 53.9190 46.0900 57° Northeast 464 534 37,000  Level FlightAware ADS-B
Fri 08:03:46 PM 53.9640 46.2070 57° Northeast 463 533 37,000  Level FlightAware ADS-B
Fri 08:04:31 PM 54.0200 46.3520 57° Northeast 464 534 37,000  Level FlightAware ADS-B
Fri 08:05:11 PM 54.0660 46.4720 57° Northeast 464 534 37,000  Level FlightAware ADS-B
Fri 08:05:51 PM 54.1100 46.5860 57° Northeast 462 532 37,000  Level FlightAware ADS-B
Fri 08:06:36 PM 54.1730 46.7210 51° Northeast 462 532 37,000  Level FlightAware ADS-B
Fri 08:07:16 PM 54.2320 46.8300 47° Northeast 463 533 37,000  Level FlightAware ADS-B
Fri 08:08:01 PM 54.2950 46.9480 48° Northeast 463 533 37,000  Level FlightAware ADS-B
Fri 08:08:41 PM 54.3540 47.0580 47° Northeast 465 535 37,000  Level FlightAware ADS-B
Fri 08:09:26 PM 54.4170 47.1790 48° Northeast 467 537 37,000  Level FlightAware ADS-B
Fri 08:10:05 PM 54.4750 47.2930 49° Northeast 468 539 37,000  Level FlightAware ADS-B
Fri 08:10:51 PM 54.5400 47.4190 48° Northeast 470 541 37,000  Level FlightAware ADS-B
Fri 08:11:26 PM 54.5890 47.5150 49° Northeast 470 541 37,000  Level FlightAware ADS-B
Fri 08:12:11 PM 54.6550 47.6440 48° Northeast 470 541 37,000  Level FlightAware ADS-B
Fri 08:12:56 PM 54.7180 47.7680 49° Northeast 470 541 37,000  Level FlightAware ADS-B
Fri 08:13:36 PM 54.7760 47.8840 49° Northeast 469 540 37,000  Level FlightAware ADS-B
Fri 08:14:21 PM 54.8400 48.0110 49° Northeast 467 537 37,000  Level FlightAware ADS-B
Fri 08:15:01 PM 54.8920 48.1090 47° Northeast 468 539 37,000  Level FlightAware ADS-B
Fri 08:15:41 PM 54.9530 48.2390 51° Northeast 467 537 37,000  Level FlightAware ADS-B
Fri 08:16:26 PM 54.9980 48.3870 62° Northeast 466 536 37,000  Level FlightAware ADS-B
Fri 08:17:06 PM 55.0240 48.5230 72° East 465 535 37,000  Level FlightAware ADS-B
Fri 08:17:41 PM 55.0440 48.6540 75° East 465 535 37,000  Level FlightAware ADS-B
Fri 08:18:26 PM 55.0690 48.8160 75° East 466 536 37,000  Level FlightAware ADS-B
Fri 08:19:07 PM 55.0910 48.9600 75° East 466 536 37,000  Level FlightAware ADS-B
Fri 08:19:51 PM 55.1150 49.1170 75° East 465 535 37,000  Level FlightAware ADS-B
Fri 08:20:31 PM 55.1360 49.2630 76° East 465 535 37,000  Level FlightAware ADS-B
Fri 08:21:11 PM 55.1580 49.4100 75° East 464 534 37,000  Level FlightAware ADS-B
Fri 08:21:50 PM 55.1800 49.5570 75° East 466 536 37,000  Level FlightAware ADS-B
Fri 08:22:26 PM 55.1990 49.6880 76° East 467 537 37,000  Level FlightAware ADS-B
Fri 08:23:11 PM 55.2220 49.8510 76° East 470 541 37,000  Level FlightAware ADS-B
Fri 08:23:51 PM 55.2420 49.9910 76° East 470 541 37,000  Level FlightAware ADS-B
Fri 08:24:31 PM 55.2640 50.1470 76° East 471 542 37,000  Level FlightAware ADS-B
Fri 08:25:16 PM 55.2880 50.3150 76° East 472 543 37,000  Level FlightAware ADS-B
Fri 08:25:56 PM 55.3070 50.4570 77° East 472 543 37,000  Level FlightAware ADS-B
Fri 08:26:41 PM 55.3310 50.6250 76° East 470 541 37,000  Level FlightAware ADS-B
Fri 08:27:21 PM 55.3520 50.7700 76° East 471 542 37,000  Level FlightAware ADS-B
Fri 08:27:58 PM 55.3720 50.8860 73° East 471 542 37,000  Level FlightAware ADS-B
Fri 08:29:06 PM 55.4170 51.1590 74° East 470 541 37,000  Level FlightAware ADS-B
Fri 08:29:36 PM 55.4350 51.2740 75° East 470 541 37,000  Level FlightAware ADS-B
Fri 08:30:36 PM 55.4680 51.4770 74° East 470 541 37,000  Level FlightAware ADS-B
Fri 08:31:36 PM 55.4990 51.6650 74° East 470 541 37,000 -240 Level FlightAware ADS-B
Fri 08:32:16 PM 55.5220 51.8440 77° East 467 537 36,600 -867 Descending FlightAware ADS-B
Fri 08:33:06 PM 55.5280 52.0520 87° East 469 540 35,700 -1,011 Descending FlightAware ADS-B
Fri 08:33:51 PM 55.5170 52.2120 97° East 456 525 35,000 -506 Descending FlightAware ADS-B
Fri 08:34:29 PM 55.5070 52.3310 98° East 456 525 35,000 -673 Level FlightAware ADS-B
Fri 08:35:29 PM 55.4600 52.5080 115° Southeast 436 502 33,900 -688 Descending FlightAware ADS-B
Fri 08:36:05 PM 55.4360 52.6080 113° Southeast 436 502 33,900 -1,976 Level FlightAware ADS-B
Fri 08:36:54 PM 55.3830 52.8090 115° Southeast 431 496 31,100 -1,909 Descending FlightAware ADS-B
Fri 08:37:33 PM 55.3570 52.9160 113° Southeast 431 496 31,100  Level FlightAware ADS-B
Fri 08:38:23 PM 55.3240 53.0530 113° Southeast 431 496 31,100  Level FlightAware ADS-B
Fri 08:39:00 PM 55.3000 53.1540 113° Southeast 431 496 31,100  Level FlightAware ADS-B
Fri 08:39:48 PM 55.2680 53.2860 113° Southeast 431 496 31,100  Level FlightAware ADS-B
Fri 08:40:24 PM 55.2440 53.3840 113° Southeast 431 496 31,100  Level FlightAware ADS-B
Fri 08:41:13 PM 55.2120 53.5180 113° Southeast 431 496 31,100  Level FlightAware ADS-B
Fri 08:42:02 PM 55.1790 53.6520 113° Southeast 431 496 31,100  Level FlightAware ADS-B
Fri 08:42:38 PM 55.1550 53.7510 113° Southeast 431 496 31,100  Level FlightAware ADS-B
Fri 08:43:26 PM 55.1240 53.8820 112° Southeast 431 496 31,100  Level FlightAware ADS-B
Fri 08:44:14 PM 55.0920 54.0120 113° Southeast 431 496 31,100  Level FlightAware ADS-B
Fri 08:44:50 PM 55.0680 54.1110 113° Southeast 431 496 31,100  Level FlightAware ADS-B
Fri 08:45:38 PM 55.0360 54.2410 113° Southeast 431 496 31,100  Level FlightAware ADS-B
Fri 08:46:16 PM 55.0110 54.3450 113° Southeast 431 496 31,100  Level FlightAware ADS-B
Fri 08:46:52 PM 54.9870 54.4430 113° Southeast 431 496 31,100  Level FlightAware ADS-B
Fri 08:49:00 PM 54.8735 54.8299 117° Southeast  Level Estimated
Fri 08:50:00 PM 54.8198 55.0106 117° Southeast  Level Estimated
Fri 08:51:00 PM 54.7659 55.1907 117° Southeast  Level Estimated
Fri 08:52:00 PM 54.7117 55.3703 118° Southeast  Level Estimated
Fri 08:53:00 PM 54.6573 55.5495 118° Southeast  Level Estimated
Fri 08:54:00 PM 54.6026 55.7282 118° Southeast  Level Estimated
Fri 08:55:00 PM 54.5575 55.8744 118° Southeast  Level Estimated
Fri 08:56:00 PM 54.5575 55.8744 300° West  Level Estimated
Fri 08:57:00 PM 54.5575 55.8744 300° West  Level Estimated
Fri 08:58:00 PM 54.5575 55.8744 300° West  Level Estimated
Fri 08:59:00 PM 54.5575 55.8744 300° West  Level Estimated
Fri 09:00:00 PM 54.5575 55.8744 300° West  Level Estimated
Fri 09:01:00 PM 54.5575 55.8744 300° West  Level Estimated
Fri 09:02:00 PM 54.5575 55.8744 300° West  Level Estimated
Fri 09:03:00 PM 54.5575 55.8744 300° West  Level Estimated
Fri 09:04:00 PM 54.5575 55.8744 300° West  Level Estimated
Fri 09:05:00 PM 54.5575 55.8744 300° West  Level Estimated
Fri 09:06:00 PM 54.5575 55.8744 300° West  Level Estimated
Fri 09:07:00 PM 54.5575 55.8744 300° West  Level Estimated
Fri 09:08:00 PM 54.5575 55.8744 300° West  Level Estimated

Login

Don't have an account? Register now (free) for customized features, flight alerts, and more!